createdAt,value
2023-03-16T00:00:13.997Z,1.15
2023-03-16T00:02:42.667Z,1.35
2023-03-16T00:05:13.135Z,1.75
2023-03-16T00:07:42.048Z,1.67
2023-03-16T00:10:13.887Z,1.90
2023-03-16T00:12:43.757Z,1.90
2023-03-16T00:15:12.770Z,1.45
2023-03-16T00:17:41.230Z,1.70
2023-03-16T00:20:11.130Z,1.90
2023-03-16T00:22:39.331Z,1.77
2023-03-16T00:25:08.677Z,2.22
2023-03-16T00:27:38.328Z,2.15
2023-03-16T00:30:07.391Z,1.80
2023-03-16T00:32:37.380Z,2.05
2023-03-16T00:35:09.543Z,2.00
2023-03-16T00:37:39.904Z,4.28
2023-03-16T00:40:11.545Z,1.73
2023-03-16T00:42:41.513Z,1.88
2023-03-16T00:45:11.966Z,2.20
2023-03-16T00:47:40.212Z,1.88
2023-03-16T00:50:09.116Z,1.80
2023-03-16T00:52:37.315Z,2.50
2023-03-16T00:55:06.107Z,1.67
2023-03-16T00:57:34.399Z,1.83
2023-03-16T01:00:12.893Z,1.88
2023-03-16T01:02:42.193Z,2.47
2023-03-16T01:05:11.080Z,2.10
2023-03-16T01:07:39.474Z,2.10
2023-03-16T01:10:09.897Z,2.58
2023-03-16T01:12:38.149Z,2.20
2023-03-16T01:15:09.500Z,2.05
2023-03-16T01:17:37.748Z,2.30
2023-03-16T01:20:12.074Z,6.55
2023-03-16T01:22:40.374Z,2.00
2023-03-16T01:25:11.957Z,2.53
2023-03-16T01:27:43.380Z,1.85
2023-03-16T01:30:14.527Z,2.03
2023-03-16T01:32:43.455Z,2.40
2023-03-16T01:35:14.796Z,3.28
2023-03-16T01:37:43.187Z,2.03
2023-03-16T01:40:17.181Z,2.22
2023-03-16T01:42:50.137Z,1.55
2023-03-16T01:45:57.182Z,1.70
2023-03-16T01:48:28.337Z,1.40
2023-03-16T01:50:58.036Z,1.08
2023-03-16T01:53:26.892Z,1.35
2023-03-16T01:55:55.705Z,1.70
2023-03-16T01:58:25.206Z,1.17
2023-03-16T02:00:54.071Z,1.50
2023-03-16T02:03:24.116Z,1.50
2023-03-16T02:06:11.071Z,1.15
2023-03-16T02:08:45.362Z,1.90
2023-03-16T02:11:18.143Z,1.30
2023-03-16T02:14:10.982Z,1.38
2023-03-16T02:16:40.391Z,1.10
2023-03-16T02:19:13.730Z,1.48
2023-03-16T02:21:54.512Z,1.40
2023-03-16T02:24:22.944Z,1.42
2023-03-16T02:26:56.227Z,1.60
2023-03-16T02:29:52.853Z,1.48
2023-03-16T02:32:24.505Z,1.63
2023-03-16T02:34:53.053Z,1.52
2023-03-16T02:37:21.844Z,1.55
2023-03-16T02:39:50.721Z,1.80
2023-03-16T02:42:22.980Z,2.10
2023-03-16T02:44:56.808Z,2.38
2023-03-16T02:47:36.902Z,1.83
2023-03-16T02:50:06.606Z,1.50
2023-03-16T02:52:35.653Z,2.20
2023-03-16T02:55:04.511Z,1.60
2023-03-16T02:57:32.895Z,1.33
2023-03-16T03:00:14.376Z,1.52
2023-03-16T03:02:44.464Z,1.30
2023-03-16T03:05:14.170Z,1.50
2023-03-16T03:07:42.420Z,1.25
2023-03-16T03:10:11.869Z,2.00
2023-03-16T03:12:40.126Z,1.75
2023-03-16T03:15:11.996Z,3.20
2023-03-16T03:17:52.874Z,2.00
2023-03-16T03:20:22.163Z,1.88
2023-03-16T03:22:53.070Z,1.05
2023-03-16T03:25:23.114Z,1.55
2023-03-16T03:27:54.638Z,2.00
2023-03-16T03:30:26.111Z,1.63
2023-03-16T03:32:56.425Z,1.33
2023-03-16T03:35:24.716Z,1.20
2023-03-16T03:37:53.410Z,1.38
2023-03-16T03:40:22.666Z,0.77
2023-03-16T03:42:57.782Z,1.85
2023-03-16T03:45:26.860Z,0.80
2023-03-16T03:47:56.661Z,4.78
2023-03-16T03:50:25.953Z,1.08
2023-03-16T03:53:14.628Z,1.77
2023-03-16T03:56:12.031Z,1.20
2023-03-16T03:58:41.234Z,1.20
2023-03-16T04:01:10.129Z,1.20
2023-03-16T04:03:39.865Z,1.40
2023-03-16T04:06:09.727Z,1.40
2023-03-16T04:08:38.189Z,1.55
2023-03-16T04:11:10.413Z,0.98
2023-03-16T04:13:38.810Z,2.05
2023-03-16T04:16:07.487Z,2.78
2023-03-16T04:18:45.466Z,2.22
2023-03-16T04:21:17.067Z,1.50
2023-03-16T04:23:48.061Z,1.65
2023-03-16T04:26:16.785Z,1.58
2023-03-16T04:28:47.603Z,1.48
2023-03-16T04:31:18.684Z,1.58
2023-03-16T04:33:50.096Z,1.35
2023-03-16T04:36:18.574Z,2.45
2023-03-16T04:38:47.039Z,1.73
2023-03-16T04:41:16.097Z,1.30
2023-03-16T04:43:52.648Z,2.60
2023-03-16T04:46:24.683Z,1.20
2023-03-16T04:48:54.536Z,1.23
2023-03-16T04:51:22.824Z,1.60
2023-03-16T04:54:02.146Z,1.60
2023-03-16T04:56:35.393Z,1.70
2023-03-16T04:59:08.207Z,1.25
2023-03-16T05:01:48.669Z,1.27
2023-03-16T05:04:19.926Z,1.88
2023-03-16T05:06:49.716Z,1.70
2023-03-16T05:09:20.966Z,1.80
2023-03-16T05:11:49.632Z,1.63
2023-03-16T05:14:17.910Z,1.40
2023-03-16T05:17:22.279Z,2.15
2023-03-16T05:19:52.354Z,1.30
2023-03-16T05:22:22.357Z,2.03
2023-03-16T05:25:20.976Z,1.40
2023-03-16T05:27:55.001Z,2.00
2023-03-16T05:30:35.048Z,1.55
2023-03-16T05:33:05.947Z,1.90
2023-03-16T05:35:36.585Z,1.70
2023-03-16T05:38:09.207Z,2.60
2023-03-16T05:40:40.897Z,1.20
2023-03-16T05:43:16.981Z,1.60
2023-03-16T05:45:50.661Z,1.55
2023-03-16T05:48:21.274Z,1.45
2023-03-16T05:50:56.408Z,2.25
2023-03-16T05:53:29.436Z,2.25
2023-03-16T05:56:04.886Z,2.30
2023-03-16T05:58:35.528Z,1.60
2023-03-16T06:01:09.224Z,2.60
2023-03-16T06:03:37.697Z,2.97
2023-03-16T06:06:09.972Z,2.17
2023-03-16T06:08:49.384Z,1.90
2023-03-16T06:11:20.649Z,1.90
2023-03-16T06:13:49.036Z,2.38
2023-03-16T06:16:18.119Z,2.25
2023-03-16T06:18:46.806Z,3.40
2023-03-16T06:21:16.630Z,3.28
2023-03-16T06:23:46.367Z,3.50
2023-03-16T06:26:14.927Z,4.55
2023-03-16T06:28:45.723Z,3.10
2023-03-16T06:31:14.119Z,3.15
2023-03-16T06:33:45.030Z,2.63
2023-03-16T06:36:13.557Z,2.08
2023-03-16T06:38:49.303Z,2.95
2023-03-16T06:41:44.225Z,2.60
2023-03-16T06:44:14.925Z,2.38
2023-03-16T06:46:53.982Z,3.08
2023-03-16T06:49:22.463Z,2.40
2023-03-16T06:51:51.353Z,1.98
2023-03-16T06:54:21.784Z,2.60
2023-03-16T06:56:50.115Z,2.35
2023-03-16T06:59:18.327Z,2.38
2023-03-16T07:01:46.613Z,2.55
2023-03-16T07:04:15.088Z,2.25
2023-03-16T07:06:43.567Z,2.63
2023-03-16T07:09:12.803Z,3.20
2023-03-16T07:11:42.508Z,2.75
2023-03-16T07:14:11.963Z,2.55
2023-03-16T07:16:41.257Z,4.88
2023-03-16T07:19:11.639Z,3.53
2023-03-16T07:21:40.934Z,3.78
2023-03-16T07:24:14.208Z,3.90
2023-03-16T07:26:44.542Z,4.15
2023-03-16T07:29:17.264Z,4.63
2023-03-16T07:31:46.202Z,4.18
2023-03-16T07:34:20.068Z,4.15
2023-03-16T07:36:53.790Z,3.95
2023-03-16T07:39:24.748Z,3.05
2023-03-16T07:42:00.163Z,3.40
2023-03-16T07:44:54.497Z,4.68
2023-03-16T07:47:25.916Z,3.90
2023-03-16T07:49:57.076Z,3.72
2023-03-16T07:52:25.521Z,3.67
2023-03-16T07:54:54.494Z,3.42
2023-03-16T07:57:24.346Z,4.95
2023-03-16T07:59:52.719Z,4.07
2023-03-16T08:02:22.695Z,4.00
2023-03-16T08:04:51.957Z,3.65
2023-03-16T08:07:20.430Z,3.17
2023-03-16T08:09:56.144Z,3.70
2023-03-16T08:12:31.911Z,4.05
2023-03-16T08:15:00.656Z,3.65
2023-03-16T08:17:31.897Z,3.53
2023-03-16T08:20:02.056Z,3.47
2023-03-16T08:22:31.029Z,2.45
2023-03-16T08:24:59.340Z,3.22
2023-03-16T08:27:29.641Z,4.47
2023-03-16T08:30:05.530Z,4.43
2023-03-16T08:32:36.278Z,5.20
2023-03-16T08:35:05.063Z,3.90
2023-03-16T08:37:33.354Z,2.50
2023-03-16T08:40:02.406Z,4.90
2023-03-16T08:42:31.388Z,4.35
2023-03-16T08:45:12.354Z,4.30
2023-03-16T08:47:43.430Z,5.03
2023-03-16T08:50:14.162Z,3.17
2023-03-16T08:52:42.888Z,3.40
2023-03-16T08:55:13.396Z,2.63
2023-03-16T08:57:41.827Z,2.22
2023-03-16T09:00:14.614Z,6.85
2023-03-16T09:02:43.886Z,3.08
2023-03-16T09:05:14.781Z,3.25
2023-03-16T09:07:43.826Z,2.30
2023-03-16T09:10:16.370Z,2.95
2023-03-16T09:12:45.340Z,2.30
2023-03-16T09:15:15.176Z,2.25
2023-03-16T09:17:45.242Z,3.42
2023-03-16T09:20:26.811Z,2.80
2023-03-16T09:22:58.837Z,3.28
2023-03-16T09:25:27.599Z,3.40
2023-03-16T09:27:56.250Z,4.00
2023-03-16T09:30:26.545Z,3.58
2023-03-16T09:32:55.331Z,3.28
2023-03-16T09:35:23.833Z,4.03
2023-03-16T09:38:05.485Z,6.95
2023-03-16T09:40:38.265Z,3.13
2023-03-16T09:43:23.990Z,2.80
2023-03-16T09:46:00.993Z,3.65
2023-03-16T09:48:31.773Z,3.35
2023-03-16T09:51:03.588Z,5.13
2023-03-16T09:53:35.383Z,9.38
2023-03-16T09:56:06.164Z,4.80
2023-03-16T09:58:34.459Z,4.00
2023-03-16T10:01:11.273Z,7.13
2023-03-16T10:04:25.056Z,4.28
2023-03-16T10:07:02.917Z,3.83
2023-03-16T10:09:38.236Z,4.13
2023-03-16T10:12:09.038Z,4.25
2023-03-16T10:14:48.317Z,3.00
2023-03-16T10:17:21.187Z,3.92
2023-03-16T10:19:54.049Z,3.42
2023-03-16T10:22:26.722Z,4.05
2023-03-16T10:25:05.716Z,4.03
2023-03-16T10:27:38.453Z,6.65
2023-03-16T10:30:20.906Z,3.10
2023-03-16T10:32:50.800Z,4.97
2023-03-16T10:35:32.606Z,4.70
2023-03-16T10:38:00.909Z,5.03
2023-03-16T10:40:33.000Z,4.53
2023-03-16T10:43:08.676Z,3.97
2023-03-16T10:45:37.979Z,4.93
2023-03-16T10:48:15.807Z,4.55
2023-03-16T10:50:45.500Z,6.05
2023-03-16T10:53:20.835Z,4.72
2023-03-16T10:55:50.515Z,5.65
2023-03-16T10:58:27.241Z,5.00
2023-03-16T11:00:56.505Z,5.15
2023-03-16T11:03:31.741Z,4.65
2023-03-16T11:06:02.451Z,4.70
2023-03-16T11:08:34.923Z,4.00
2023-03-16T11:11:11.911Z,4.63
2023-03-16T11:13:46.173Z,4.30
2023-03-16T11:16:26.409Z,10.32
2023-03-16T11:18:59.607Z,5.10
2023-03-16T11:21:41.172Z,6.93
2023-03-16T11:24:19.220Z,11.20
2023-03-16T11:26:54.474Z,6.07
2023-03-16T11:29:28.562Z,6.03
2023-03-16T11:32:02.336Z,5.57
2023-03-16T11:34:33.358Z,6.72
2023-03-16T11:37:13.139Z,7.05
2023-03-16T11:39:52.758Z,7.82
2023-03-16T11:42:30.740Z,5.95
2023-03-16T11:45:05.638Z,8.80
2023-03-16T11:48:01.985Z,9.32
2023-03-16T11:50:39.007Z,9.68
2023-03-16T11:53:17.542Z,9.75
2023-03-16T11:56:06.707Z,23.70
2023-03-16T11:58:49.276Z,21.40
2023-03-16T12:01:21.833Z,10.23
2023-03-16T12:04:03.387Z,9.05
2023-03-16T12:07:01.084Z,6.30
2023-03-16T12:09:58.694Z,19.27
2023-03-16T12:12:37.595Z,12.15
2023-03-16T12:15:29.896Z,9.25
2023-03-16T12:18:03.886Z,14.38
2023-03-16T12:20:39.570Z,12.73
2023-03-16T12:23:14.834Z,9.45
2023-03-16T12:25:47.637Z,8.68
2023-03-16T12:28:23.777Z,9.75
2023-03-16T12:31:01.921Z,7.72
2023-03-16T12:33:44.881Z,19.42
2023-03-16T12:36:37.330Z,6.28
2023-03-16T12:39:10.082Z,6.65
2023-03-16T12:41:51.464Z,6.30
2023-03-16T12:44:24.816Z,10.20
2023-03-16T12:46:59.346Z,5.78
2023-03-16T12:49:28.872Z,18.27
2023-03-16T12:52:01.943Z,8.05
2023-03-16T12:54:32.151Z,7.20
2023-03-16T12:57:05.797Z,9.60
2023-03-16T12:59:41.643Z,10.02
2023-03-16T13:02:17.118Z,7.55
2023-03-16T13:04:50.550Z,10.82
2023-03-16T13:07:23.896Z,15.85
2023-03-16T13:09:59.034Z,10.23
2023-03-16T13:12:28.975Z,11.18
2023-03-16T13:14:57.252Z,10.30
2023-03-16T13:17:28.837Z,13.18
2023-03-16T13:20:08.940Z,10.10
2023-03-16T13:22:46.824Z,10.95
2023-03-16T13:25:25.554Z,11.50
2023-03-16T13:27:56.078Z,15.52
2023-03-16T13:30:28.745Z,9.88
2023-03-16T13:33:01.698Z,13.75
2023-03-16T13:35:31.834Z,19.38
2023-03-16T13:38:05.667Z,13.93
2023-03-16T13:40:38.150Z,20.85
2023-03-16T13:43:06.806Z,17.95
2023-03-16T13:45:38.781Z,11.68
2023-03-16T13:48:07.236Z,14.75
2023-03-16T13:50:38.673Z,11.63
2023-03-16T13:53:19.756Z,10.75
2023-03-16T13:55:50.260Z,12.75
2023-03-16T13:58:23.769Z,18.42
2023-03-16T14:00:57.213Z,23.38
2023-03-16T14:03:32.861Z,22.00
2023-03-16T14:06:01.875Z,14.98
2023-03-16T14:08:31.516Z,11.80
2023-03-16T14:11:02.231Z,12.75
2023-03-16T14:13:38.186Z,15.68
2023-03-16T14:16:14.681Z,12.27
2023-03-16T14:18:46.563Z,12.10
2023-03-16T14:21:17.760Z,13.65
2023-03-16T14:23:47.386Z,13.55
2023-03-16T14:26:19.498Z,13.07
2023-03-16T14:28:58.567Z,15.77
2023-03-16T14:31:36.162Z,15.52
2023-03-16T14:34:08.857Z,13.60
2023-03-16T14:36:39.294Z,17.15
2023-03-16T14:39:16.941Z,16.17
2023-03-16T14:41:50.489Z,15.15
2023-03-16T14:44:24.877Z,19.08
2023-03-16T14:46:56.447Z,14.98
2023-03-16T14:49:29.085Z,18.50
2023-03-16T14:52:02.193Z,15.50
2023-03-16T14:54:30.907Z,18.02
2023-03-16T14:57:03.818Z,19.98
2023-03-16T14:59:32.864Z,15.82
2023-03-16T15:02:03.247Z,17.50
2023-03-16T15:04:34.319Z,13.88
2023-03-16T15:07:23.981Z,16.92
2023-03-16T15:09:55.164Z,12.98
2023-03-16T15:12:26.267Z,17.55
2023-03-16T15:15:12.104Z,17.58
2023-03-16T15:17:40.404Z,21.38
2023-03-16T15:20:10.228Z,23.30
2023-03-16T15:22:40.663Z,19.05
2023-03-16T15:25:29.366Z,21.70
2023-03-16T15:27:59.282Z,17.35
2023-03-16T15:30:30.712Z,16.33
2023-03-16T15:32:59.181Z,19.15
2023-03-16T15:35:28.341Z,18.40
2023-03-16T15:37:56.900Z,18.48
2023-03-16T15:40:27.387Z,14.82
2023-03-16T15:42:56.502Z,14.93
2023-03-16T15:45:27.148Z,15.13
2023-03-16T15:47:55.570Z,21.50
2023-03-16T15:50:25.845Z,20.85
2023-03-16T15:52:58.230Z,18.27
2023-03-16T15:55:33.122Z,15.82
2023-03-16T15:58:03.691Z,23.25
2023-03-16T16:00:35.808Z,17.20
2023-03-16T16:03:05.789Z,18.20
2023-03-16T16:05:34.745Z,23.50
2023-03-16T16:08:03.024Z,16.40
2023-03-16T16:10:32.299Z,20.10
2023-03-16T16:13:01.489Z,21.00
2023-03-16T16:15:33.836Z,18.27
2023-03-16T16:18:21.991Z,16.83
2023-03-16T16:20:51.451Z,21.25
2023-03-16T16:23:20.612Z,37.45
2023-03-16T16:25:49.639Z,22.35
2023-03-16T16:28:20.798Z,19.25
2023-03-16T16:30:49.376Z,19.60
2023-03-16T16:33:27.405Z,18.13
2023-03-16T16:35:57.418Z,22.05
2023-03-16T16:38:26.370Z,19.88
2023-03-16T16:40:58.088Z,24.20
2023-03-16T16:43:33.423Z,25.95
2023-03-16T16:46:03.332Z,23.73
2023-03-16T16:48:35.111Z,19.67
2023-03-16T16:51:06.996Z,30.23
2023-03-16T16:53:35.540Z,19.90
2023-03-16T16:56:04.185Z,21.42
2023-03-16T16:58:32.432Z,18.52
2023-03-16T17:01:00.674Z,23.27
2023-03-16T17:03:30.452Z,23.23
2023-03-16T17:06:00.251Z,18.35
2023-03-16T17:08:28.687Z,34.28
2023-03-16T17:10:57.284Z,23.05
2023-03-16T17:13:29.780Z,23.77
2023-03-16T17:15:58.877Z,26.42
2023-03-16T17:18:27.190Z,29.95
2023-03-16T17:20:56.972Z,21.45
2023-03-16T17:23:33.149Z,19.02
2023-03-16T17:26:07.603Z,25.40
2023-03-16T17:28:39.785Z,21.08
2023-03-16T17:31:08.379Z,23.60
2023-03-16T17:33:36.604Z,18.67
2023-03-16T17:36:05.217Z,38.15
2023-03-16T17:38:35.213Z,23.60
2023-03-16T17:41:03.467Z,20.63
2023-03-16T17:43:32.975Z,44.55
2023-03-16T17:46:06.062Z,19.65
2023-03-16T17:48:34.444Z,26.70
2023-03-16T17:51:02.682Z,18.92
2023-03-16T17:53:31.428Z,35.45
2023-03-16T17:56:01.302Z,22.65
2023-03-16T17:58:31.611Z,22.30
2023-03-16T18:01:00.021Z,17.70
2023-03-16T18:03:30.663Z,24.30
2023-03-16T18:05:59.426Z,25.52
2023-03-16T18:08:29.373Z,37.10
2023-03-16T18:11:01.749Z,25.17
2023-03-16T18:13:33.470Z,38.25
2023-03-16T18:16:03.017Z,23.83
2023-03-16T18:18:33.476Z,21.13
2023-03-16T18:21:01.922Z,20.88
2023-03-16T18:23:32.139Z,23.45
2023-03-16T18:26:03.903Z,24.23
2023-03-16T18:28:33.827Z,20.95
2023-03-16T18:31:03.810Z,22.13
2023-03-16T18:33:34.329Z,24.95
2023-03-16T18:36:05.017Z,23.75
2023-03-16T18:38:35.319Z,24.38
2023-03-16T18:41:17.058Z,21.75
2023-03-16T18:43:45.759Z,34.97
2023-03-16T18:46:24.207Z,25.58
2023-03-16T18:48:54.235Z,22.20
2023-03-16T18:51:23.073Z,18.77
2023-03-16T18:53:51.762Z,21.50
2023-03-16T18:56:23.964Z,25.27
2023-03-16T18:58:53.686Z,26.38
2023-03-16T19:01:24.890Z,27.50
2023-03-16T19:03:54.205Z,20.50
2023-03-16T19:06:27.353Z,24.65
2023-03-16T19:08:56.017Z,17.63
2023-03-16T19:11:25.640Z,21.48
2023-03-16T19:13:54.845Z,21.30
2023-03-16T19:16:23.795Z,22.67
2023-03-16T19:18:52.064Z,19.52
2023-03-16T19:21:23.602Z,24.33
2023-03-16T19:23:58.208Z,24.42
2023-03-16T19:26:28.105Z,19.42
2023-03-16T19:28:56.489Z,22.40
2023-03-16T19:31:27.218Z,23.98
2023-03-16T19:33:56.919Z,24.77
2023-03-16T19:36:28.100Z,24.98
2023-03-16T19:38:56.436Z,19.75
2023-03-16T19:41:28.900Z,23.30
2023-03-16T19:43:59.124Z,22.60
2023-03-16T19:46:28.535Z,21.75
2023-03-16T19:48:57.791Z,25.83
2023-03-16T19:51:29.177Z,22.15
2023-03-16T19:53:58.258Z,21.45
2023-03-16T19:56:28.869Z,16.92
2023-03-16T19:58:57.442Z,20.65
2023-03-16T20:01:32.367Z,18.17
2023-03-16T20:04:04.299Z,21.27
2023-03-16T20:06:33.385Z,20.23
2023-03-16T20:09:01.794Z,22.70
2023-03-16T20:11:32.859Z,20.83
2023-03-16T20:14:01.924Z,18.13
2023-03-16T20:16:32.364Z,23.15
2023-03-16T20:19:03.196Z,18.50
2023-03-16T20:21:31.484Z,22.00
2023-03-16T20:23:59.691Z,22.30
2023-03-16T20:26:32.233Z,24.50
2023-03-16T20:29:02.165Z,29.40
2023-03-16T20:31:34.597Z,21.90
2023-03-16T20:34:03.161Z,18.88
2023-03-16T20:36:31.894Z,19.83
2023-03-16T20:39:00.298Z,20.30
2023-03-16T20:41:32.726Z,19.45
2023-03-16T20:44:03.230Z,21.02
2023-03-16T20:46:33.449Z,16.20
2023-03-16T20:49:02.103Z,20.02
2023-03-16T20:51:30.505Z,19.23
2023-03-16T20:53:58.786Z,21.85
2023-03-16T20:56:27.128Z,20.23
2023-03-16T20:58:56.213Z,17.77
2023-03-16T21:01:26.567Z,19.05
2023-03-16T21:03:56.923Z,19.65
2023-03-16T21:06:27.589Z,18.08
2023-03-16T21:08:58.011Z,21.40
2023-03-16T21:11:28.742Z,16.90
2023-03-16T21:13:57.555Z,20.45
2023-03-16T21:16:27.273Z,20.00
2023-03-16T21:18:55.914Z,17.05
2023-03-16T21:21:24.704Z,16.92
2023-03-16T21:23:53.099Z,15.07
2023-03-16T21:26:24.043Z,18.50
2023-03-16T21:28:56.618Z,18.90
2023-03-16T21:31:27.234Z,20.33
2023-03-16T21:33:56.475Z,19.40
2023-03-16T21:36:26.624Z,19.55
2023-03-16T21:38:56.135Z,17.33
2023-03-16T21:41:24.604Z,14.80
2023-03-16T21:43:54.473Z,15.30
2023-03-16T21:46:26.481Z,17.70
2023-03-16T21:48:56.764Z,19.15
2023-03-16T21:51:28.996Z,19.40
2023-03-16T21:53:58.097Z,15.77
2023-03-16T21:56:27.538Z,19.58
2023-03-16T21:58:55.945Z,13.95
2023-03-16T22:01:29.295Z,18.85
2023-03-16T22:06:47.093Z,15.88
2023-03-16T22:09:19.274Z,17.67
2023-03-16T22:11:47.769Z,15.82
2023-03-16T22:14:16.097Z,17.20
2023-03-16T22:16:45.987Z,16.90
2023-03-16T22:19:17.789Z,14.35
2023-03-16T22:21:47.251Z,19.85
2023-03-16T22:24:18.441Z,17.23
2023-03-16T22:26:47.735Z,16.25
2023-03-16T22:29:23.405Z,16.00
2023-03-16T22:31:55.603Z,14.40
2023-03-16T22:34:29.157Z,15.40
2023-03-16T22:36:58.577Z,15.20
2023-03-16T22:39:27.173Z,16.30
2023-03-16T22:41:55.676Z,17.17
2023-03-16T22:44:25.014Z,15.70
2023-03-16T22:46:54.768Z,16.40
2023-03-16T22:49:26.282Z,13.98
2023-03-16T22:51:57.740Z,12.55
2023-03-16T22:54:29.317Z,15.43
2023-03-16T22:56:58.136Z,15.02
2023-03-16T22:59:28.348Z,18.27
2023-03-16T23:01:58.697Z,15.23
2023-03-16T23:04:30.310Z,15.77
2023-03-16T23:06:59.474Z,15.38
2023-03-16T23:09:28.993Z,13.63
2023-03-16T23:11:59.424Z,13.48
2023-03-16T23:14:32.199Z,14.65
2023-03-16T23:17:02.102Z,12.13
2023-03-16T23:19:32.796Z,12.25
2023-03-16T23:22:03.427Z,15.25
2023-03-16T23:24:33.084Z,13.68
2023-03-16T23:27:02.290Z,15.30
2023-03-16T23:29:31.204Z,14.02
2023-03-16T23:31:59.528Z,17.27
2023-03-16T23:34:29.280Z,15.43
2023-03-16T23:36:57.650Z,15.13
2023-03-16T23:39:26.167Z,17.45
2023-03-16T23:41:54.533Z,15.40
2023-03-16T23:44:26.837Z,13.88
2023-03-16T23:46:56.136Z,14.27
2023-03-16T23:49:30.116Z,16.05
2023-03-16T23:52:00.731Z,18.70
2023-03-16T23:54:30.764Z,14.52
2023-03-16T23:56:59.238Z,15.82
2023-03-16T23:59:27.901Z,16.60
